Terminal Aerodrome Forecast
Issued by NWS

Home | Current Version | Previous Version | Text Only | Print | Product List | Glossary On
Versions: 1 2 3 4 5 6 7 8 9 10 11 12 13 14 15 16 17 18 19
268
FTUS41 KPBZ 230523
TAFHLG
TAF
KHLG 230523Z 2306/2406 00000KT P6SM BKN035
     FM230800 22003KT P6SM BKN250
     FM231800 22005KT P6SM BKN100=

USA.gov is the U.S. government's official web portal to all federal, state and local government web resources and services.